Time;durP1;ratioP1;P1;durP2;ratioP2;P2;SDS_P1;SDS_P2;PMS_P1;PMS_P2;Temp;Humidity;BMP_temperature;BMP_pressure;BME280_temperature;BME280_humidity;BME280_pressure;Samples;Min_cycle;Max_cycle;Signal;HPM_P1;HPM_P2
2021/12/09 00:02:18;;;;;;;9.77;4.47;;;4.40;99.90;;;;;;5030647;28;20511;-75
2021/12/09 00:04:45;;;;;;;10.00;4.53;;;4.40;99.90;;;;;;5030673;28;20483;-75
2021/12/09 00:07:11;;;;;;;10.90;4.87;;;4.30;99.90;;;;;;5030667;28;20428;-75
2021/12/09 00:09:37;;;;;;;9.80;5.00;;;4.30;99.90;;;;;;5030433;28;20424;-75
2021/12/09 00:12:03;;;;;;;8.63;5.40;;;4.30;99.90;;;;;;5031665;28;20488;-76
2021/12/09 00:14:32;;;;;;;8.90;4.77;;;4.30;99.90;;;;;;5030482;28;20359;-76
2021/12/09 00:17:04;;;;;;;9.07;4.60;;;4.40;99.90;;;;;;5030588;28;20432;-75
2021/12/09 00:19:30;;;;;;;6.87;3.97;;;4.50;99.90;;;;;;5030401;28;20470;-75
2021/12/09 00:21:57;;;;;;;8.90;3.97;;;4.60;99.90;;;;;;5030482;28;20791;-75
2021/12/09 00:24:22;;;;;;;10.17;3.90;;;4.60;99.90;;;;;;5030298;28;20933;-75
2021/12/09 00:26:49;;;;;;;8.33;3.73;;;4.70;99.90;;;;;;5030442;28;20516;-76
2021/12/09 00:29:16;;;;;;;8.23;4.10;;;4.80;99.90;;;;;;5051206;22;20475;-83
2021/12/09 00:31:41;;;;;;;6.37;3.83;;;4.80;99.90;;;;;;5028112;28;20841;-83
2021/12/09 00:34:07;;;;;;;6.70;4.00;;;4.80;99.90;;;;;;5012866;28;20428;-83
2021/12/09 00:36:39;;;;;;;8.23;3.83;;;4.80;99.90;;;;;;5028244;28;20420;-83
2021/12/09 00:39:08;;;;;;;7.67;4.60;;;4.80;99.90;;;;;;5011708;28;20252;-83
2021/12/09 00:41:33;;;;;;;7.30;3.70;;;4.80;99.90;;;;;;5012512;28;20420;-83
2021/12/09 00:43:59;;;;;;;10.17;3.97;;;4.80;99.90;;;;;;5031014;28;20415;-83
2021/12/09 00:46:25;;;;;;;11.53;4.33;;;4.80;99.90;;;;;;5031348;28;20188;-82
2021/12/09 00:48:51;;;;;;;7.07;4.00;;;4.80;99.90;;;;;;5031222;28;20262;-82
2021/12/09 00:51:17;;;;;;;8.30;4.53;;;4.80;99.90;;;;;;5031939;28;20563;-83
2021/12/09 00:53:43;;;;;;;7.40;3.70;;;4.80;99.90;;;;;;5030953;28;20426;-82
2021/12/09 00:56:10;;;;;;;9.63;4.77;;;4.80;99.90;;;;;;5031487;28;20423;-83
2021/12/09 00:58:38;;;;;;;8.30;2.97;;;4.80;99.90;;;;;;5032412;28;20180;-83
2021/12/09 01:01:05;;;;;;;7.20;4.30;;;4.80;99.90;;;;;;5032816;28;20761;-83
2021/12/09 01:03:32;;;;;;;11.73;3.67;;;4.80;99.90;;;;;;5030746;28;20821;-82
2021/12/09 01:05:58;;;;;;;5.90;3.70;;;4.80;99.90;;;;;;5030722;28;20430;-83
2021/12/09 01:08:23;;;;;;;6.70;3.43;;;4.80;99.90;;;;;;5035663;28;20413;-83
2021/12/09 01:10:49;;;;;;;10.30;4.23;;;4.90;99.90;;;;;;5034240;28;20571;-82
2021/12/09 01:13:15;;;;;;;6.87;3.93;;;4.90;99.90;;;;;;5034647;28;20176;-83
2021/12/09 01:15:40;;;;;;;7.27;3.67;;;4.90;99.90;;;;;;5035871;28;20169;-82
2021/12/09 01:18:06;;;;;;;7.80;3.53;;;4.90;99.90;;;;;;5034901;28;20546;-83
2021/12/09 01:20:32;;;;;;;12.33;4.30;;;4.90;99.90;;;;;;5034433;28;20198;-83
2021/12/09 01:22:58;;;;;;;6.63;3.03;;;5.00;99.90;;;;;;5034427;28;20207;-83
2021/12/09 01:25:26;;;;;;;6.13;3.53;;;4.90;99.90;;;;;;5035852;28;20201;-82
2021/12/09 01:27:54;;;;;;;6.07;3.27;;;4.80;99.90;;;;;;5035788;28;20416;-83
2021/12/09 01:30:21;;;;;;;4.77;3.60;;;4.70;99.90;;;;;;5035196;28;20530;-83
2021/12/09 01:32:51;;;;;;;8.67;3.10;;;4.60;99.90;;;;;;5035540;28;20428;-83
2021/12/09 01:35:24;;;;;;;6.97;3.10;;;4.50;99.90;;;;;;5035663;28;20782;-82
2021/12/09 01:37:54;;;;;;;8.60;3.73;;;4.40;99.90;;;;;;5035608;28;20442;-82
2021/12/09 01:40:22;;;;;;;5.03;3.30;;;4.40;99.90;;;;;;5033780;28;20439;-82
2021/12/09 01:42:48;;;;;;;10.80;3.37;;;4.40;99.90;;;;;;5034122;28;20800;-83
2021/12/09 01:45:14;;;;;;;6.77;3.30;;;4.30;99.90;;;;;;5035434;28;20400;-82
2021/12/09 01:47:40;;;;;;;6.17;3.53;;;4.30;99.90;;;;;;5034003;28;20694;-83
2021/12/09 01:50:07;;;;;;;5.13;3.10;;;4.30;99.90;;;;;;5034030;28;20569;-83
2021/12/09 01:52:33;;;;;;;4.13;2.90;;;4.30;99.90;;;;;;5033655;28;20479;-83
2021/12/09 01:54:58;;;;;;;5.87;2.73;;;4.30;99.90;;;;;;5033699;28;20421;-83
2021/12/09 01:57:24;;;;;;;5.67;3.57;;;4.20;99.90;;;;;;5035228;28;20415;-82
2021/12/09 01:59:50;;;;;;;7.40;3.10;;;4.20;99.90;;;;;;5035023;28;20201;-82
2021/12/09 02:02:16;;;;;;;8.73;3.70;;;4.10;99.90;;;;;;5033605;28;20239;-82
2021/12/09 02:04:43;;;;;;;6.00;3.67;;;4.10;99.90;;;;;;5035042;28;20416;-83
2021/12/09 02:07:09;;;;;;;9.00;4.43;;;4.00;99.90;;;;;;5035262;28;20481;-83
2021/12/09 02:09:35;;;;;;;7.00;4.10;;;3.90;99.90;;;;;;5036665;28;20470;-83
2021/12/09 02:12:02;;;;;;;5.07;3.47;;;3.90;99.90;;;;;;5037530;28;20455;-83
2021/12/09 02:14:27;;;;;;;5.70;3.30;;;3.90;99.90;;;;;;5037506;28;20776;-83
2021/12/09 02:16:53;;;;;;;8.53;3.40;;;3.80;99.90;;;;;;5037314;28;20502;-83
2021/12/09 02:19:19;;;;;;;4.90;3.40;;;3.80;99.90;;;;;;5036425;28;20201;-82
2021/12/09 02:21:45;;;;;;;6.90;2.83;;;3.80;99.90;;;;;;5035645;28;20231;-83
2021/12/09 02:24:16;;;;;;;8.67;3.80;;;3.70;99.90;;;;;;5035813;28;20243;-83
2021/12/09 02:26:45;;;;;;;7.73;3.70;;;3.70;99.90;;;;;;5035555;28;20458;-83
2021/12/09 02:29:13;;;;;;;5.23;3.17;;;3.60;99.90;;;;;;5034846;28;20436;-83
2021/12/09 02:31:40;;;;;;;12.30;3.63;;;3.60;99.90;;;;;;5036731;28;20470;-83
2021/12/09 02:34:07;;;;;;;8.40;4.20;;;3.60;99.90;;;;;;5037256;28;20406;-83
2021/12/09 02:36:37;;;;;;;5.20;3.60;;;3.50;99.90;;;;;;5035085;28;20992;-83
2021/12/09 02:39:14;;;;;;;9.73;3.70;;;3.50;99.90;;;;;;5036183;28;20438;-83
2021/12/09 02:41:41;;;;;;;5.30;3.23;;;3.50;99.90;;;;;;5034997;28;20475;-83
2021/12/09 02:44:11;;;;;;;11.60;4.40;;;3.50;99.90;;;;;;5035836;28;20491;-83
2021/12/09 02:46:38;;;;;;;4.47;3.20;;;3.50;99.90;;;;;;5034866;28;20842;-83
2021/12/09 02:49:16;;;;;;;13.07;4.23;;;3.40;99.90;;;;;;5034067;28;20529;-82
2021/12/09 02:51:43;;;;;;;6.43;4.13;;;3.40;99.90;;;;;;5034025;28;20480;-82
2021/12/09 02:54:11;;;;;;;5.90;3.50;;;3.40;99.90;;;;;;5032611;28;20418;-83
2021/12/09 02:56:37;;;;;;;6.40;3.37;;;3.40;99.90;;;;;;5032594;28;20849;-83
2021/12/09 02:59:04;;;;;;;4.80;3.30;;;3.40;99.90;;;;;;5032544;28;20435;-82
2021/12/09 03:01:34;;;;;;;4.33;3.43;;;3.40;99.90;;;;;;5032486;28;20471;-83
2021/12/09 03:04:02;;;;;;;6.83;3.90;;;3.30;99.90;;;;;;5033795;28;20506;-82
2021/12/09 03:06:36;;;;;;;5.40;3.47;;;3.30;99.90;;;;;;5032308;28;20442;-83
2021/12/09 03:09:22;;;;;;;6.93;4.07;;;3.30;99.90;;;;;;5032405;28;20450;-83
2021/12/09 03:11:54;;;;;;;6.53;3.60;;;3.30;99.90;;;;;;5031529;28;20504;-83
2021/12/09 03:14:21;;;;;;;4.97;3.30;;;3.20;99.90;;;;;;5033687;28;20391;-83
2021/12/09 03:16:46;;;;;;;7.20;3.20;;;3.20;99.90;;;;;;5033684;28;20495;-82
2021/12/09 03:19:12;;;;;;;6.33;3.50;;;3.20;99.90;;;;;;5033265;28;20591;-83
2021/12/09 03:21:46;;;;;;;7.87;3.40;;;3.20;99.90;;;;;;5033725;28;20183;-83
2021/12/09 03:24:15;;;;;;;7.70;4.10;;;3.10;99.90;;;;;;5033766;28;20753;-82
2021/12/09 03:26:56;;;;;;;7.33;4.13;;;3.10;99.90;;;;;;5033655;28;20415;-83
2021/12/09 03:29:24;;;;;;;4.63;3.23;;;3.10;99.90;;;;;;5033926;28;20941;-83
2021/12/09 03:31:51;;;;;;;6.00;3.77;;;3.00;99.90;;;;;;5034888;28;20460;-83
2021/12/09 03:34:20;;;;;;;5.27;3.30;;;3.00;99.90;;;;;;5033241;28;20461;-83
2021/12/09 03:36:48;;;;;;;6.50;3.40;;;2.90;99.90;;;;;;5033469;28;20497;-83
2021/12/09 03:39:18;;;;;;;6.93;3.97;;;2.90;99.90;;;;;;5032973;28;20934;-83
2021/12/09 03:41:46;;;;;;;8.97;3.73;;;2.90;99.90;;;;;;5049860;28;20510;-83
2021/12/09 03:44:12;;;;;;;8.30;3.50;;;2.80;99.90;;;;;;5034626;28;20477;-83
2021/12/09 03:46:38;;;;;;;7.53;4.20;;;2.80;99.90;;;;;;5034363;28;20411;-83
2021/12/09 03:49:04;;;;;;;4.70;3.33;;;2.80;99.90;;;;;;5034744;28;20473;-83
2021/12/09 03:51:30;;;;;;;5.83;3.60;;;2.70;99.90;;;;;;5034497;28;20450;-82
2021/12/09 03:53:56;;;;;;;6.97;4.40;;;2.70;99.90;;;;;;5032728;28;20476;-83
2021/12/09 03:56:21;;;;;;;8.47;4.87;;;2.70;99.90;;;;;;5032741;28;20632;-83
2021/12/09 03:58:47;;;;;;;9.10;4.50;;;2.60;99.90;;;;;;5032836;28;20180;-83
2021/12/09 04:01:13;;;;;;;9.90;3.90;;;2.60;99.90;;;;;;5033947;28;20183;-82
2021/12/09 04:03:38;;;;;;;6.93;4.60;;;2.60;99.90;;;;;;5033941;28;20184;-83
2021/12/09 04:06:04;;;;;;;5.43;3.70;;;2.60;99.90;;;;;;5033779;28;20254;-83
2021/12/09 04:08:30;;;;;;;6.07;3.67;;;2.50;99.90;;;;;;5034131;28;20191;-83
2021/12/09 04:10:56;;;;;;;7.47;3.83;;;2.50;99.90;;;;;;5032269;28;20869;-83
2021/12/09 04:13:22;;;;;;;6.53;4.50;;;2.50;99.90;;;;;;5033699;28;20246;-83
2021/12/09 04:15:48;;;;;;;5.50;4.00;;;2.40;99.90;;;;;;5049107;28;20442;-83
2021/12/09 04:18:13;;;;;;;7.73;4.27;;;2.30;99.90;;;;;;5032255;28;20271;-83
2021/12/09 04:20:39;;;;;;;7.50;4.43;;;2.30;99.90;;;;;;5033372;28;20439;-83
2021/12/09 04:23:06;;;;;;;7.97;4.87;;;2.30;99.90;;;;;;5033396;28;20175;-83
2021/12/09 04:25:34;;;;;;;6.20;4.20;;;2.30;99.90;;;;;;5032332;28;20450;-82
2021/12/09 04:28:00;;;;;;;8.33;3.97;;;2.30;99.90;;;;;;5031962;28;20984;-83
2021/12/09 04:30:26;;;;;;;8.27;4.33;;;2.40;99.90;;;;;;5033309;28;20474;-83
2021/12/09 04:32:53;;;;;;;8.53;4.20;;;2.40;99.90;;;;;;5033290;28;20414;-82
2021/12/09 04:35:20;;;;;;;6.70;3.70;;;2.50;99.90;;;;;;5033783;28;20179;-83
2021/12/09 04:37:47;;;;;;;8.30;3.90;;;2.50;99.90;;;;;;5033607;28;20566;-83
2021/12/09 04:40:15;;;;;;;6.97;3.60;;;2.50;99.90;;;;;;5031590;28;20437;-82
2021/12/09 04:42:42;;;;;;;5.73;3.43;;;2.50;99.90;;;;;;5034797;28;20943;-83
2021/12/09 04:45:09;;;;;;;9.70;4.80;;;2.60;99.90;;;;;;5035542;28;20442;-82
2021/12/09 04:47:36;;;;;;;10.70;4.30;;;2.60;99.90;;;;;;5037348;28;20410;-83
2021/12/09 04:50:07;;;;;;;13.07;4.93;;;2.60;99.90;;;;;;5036706;28;20447;-83
2021/12/09 04:52:32;;;;;;;8.73;4.10;;;2.60;99.90;;;;;;5037259;28;20457;-82
2021/12/09 04:54:58;;;;;;;5.20;3.90;;;2.60;99.90;;;;;;5035277;28;20937;-83
2021/12/09 04:57:23;;;;;;;4.10;2.87;;;2.60;99.90;;;;;;5035666;28;20176;-82
2021/12/09 04:59:51;;;;;;;7.50;3.90;;;2.70;99.90;;;;;;5035471;28;20207;-83
2021/12/09 05:02:28;;;;;;;5.00;4.10;;;2.60;99.90;;;;;;5035521;28;20210;-82
2021/12/09 05:04:53;;;;;;;5.80;3.37;;;2.70;99.90;;;;;;5035646;28;20445;-83
2021/12/09 05:07:19;;;;;;;5.33;3.10;;;2.70;99.90;;;;;;5035597;28;20824;-83
2021/12/09 05:09:51;;;;;;;5.83;3.20;;;2.70;99.90;;;;;;5036633;28;20662;-83
2021/12/09 05:12:18;;;;;;;5.60;3.70;;;2.70;99.90;;;;;;5035098;28;20227;-83
2021/12/09 05:14:47;;;;;;;4.83;2.90;;;2.70;99.90;;;;;;5052056;28;20449;-83
2021/12/09 05:17:15;;;;;;;8.00;3.53;;;2.70;99.90;;;;;;5035378;28;20511;-83
2021/12/09 05:19:41;;;;;;;16.27;4.10;;;2.70;99.90;;;;;;5035079;28;20445;-82
2021/12/09 05:22:07;;;;;;;8.83;3.67;;;2.70;99.90;;;;;;5035029;28;21004;-83
2021/12/09 05:24:34;;;;;;;7.93;3.20;;;2.70;99.90;;;;;;5036309;28;20448;-82
2021/12/09 05:27:01;;;;;;;7.57;3.70;;;2.70;99.90;;;;;;5051896;28;20184;-82
2021/12/09 05:29:32;;;;;;;7.27;3.70;;;2.70;99.90;;;;;;5035866;28;20450;-82
2021/12/09 05:32:07;;;;;;;6.07;4.47;;;2.60;99.90;;;;;;5034541;28;20458;-82
2021/12/09 05:34:42;;;;;;;7.63;4.37;;;2.60;99.90;;;;;;5034636;28;20475;-83
2021/12/09 05:37:10;;;;;;;8.20;5.10;;;2.60;99.90;;;;;;5036135;28;20416;-82
2021/12/09 05:39:37;;;;;;;12.83;4.80;;;2.60;99.90;;;;;;5034511;28;20529;-83
2021/12/09 05:42:06;;;;;;;7.23;3.93;;;2.50;99.90;;;;;;5036098;28;20418;-82
2021/12/09 05:44:33;;;;;;;5.50;3.43;;;2.50;99.90;;;;;;5035823;28;20418;-83
2021/12/09 05:46:59;;;;;;;7.33;3.30;;;2.40;99.90;;;;;;5034602;28;20430;-83
2021/12/09 05:49:25;;;;;;;7.80;4.40;;;2.40;99.90;;;;;;5035053;28;20440;-82
2021/12/09 05:51:51;;;;;;;7.13;4.10;;;2.30;99.90;;;;;;5035036;28;20469;-82
2021/12/09 05:54:16;;;;;;;9.83;3.80;;;2.30;99.90;;;;;;5034775;28;20266;-82
2021/12/09 05:56:42;;;;;;;7.20;4.43;;;2.30;99.90;;;;;;5035436;28;20754;-82
2021/12/09 05:59:09;;;;;;;10.50;4.20;;;2.30;99.90;;;;;;5035030;28;20621;-82
2021/12/09 06:01:37;;;;;;;5.27;3.67;;;2.30;99.90;;;;;;5035144;28;20411;-82
2021/12/09 06:04:03;;;;;;;5.67;4.37;;;2.30;99.90;;;;;;5035440;28;20429;-82
2021/12/09 06:06:28;;;;;;;11.70;4.23;;;2.30;99.90;;;;;;5035035;28;20412;-82
2021/12/09 06:08:54;;;;;;;8.47;3.80;;;2.30;99.90;;;;;;5035126;28;20422;-82
2021/12/09 06:11:20;;;;;;;8.53;3.93;;;2.30;99.90;;;;;;5033557;28;20210;-82
2021/12/09 06:13:47;;;;;;;6.20;3.87;;;2.20;99.90;;;;;;5033677;28;20179;-82
2021/12/09 06:16:14;;;;;;;7.50;4.57;;;2.30;99.90;;;;;;5035018;28;20262;-82
2021/12/09 06:18:40;;;;;;;11.90;4.67;;;2.30;99.90;;;;;;5034343;28;20417;-83
2021/12/09 06:21:06;;;;;;;6.73;4.30;;;2.30;99.90;;;;;;5034523;28;20415;-82
2021/12/09 06:23:31;;;;;;;6.10;4.10;;;2.30;99.90;;;;;;5034665;28;20201;-82
2021/12/09 06:25:57;;;;;;;7.90;4.70;;;2.30;99.90;;;;;;5033313;28;20430;-82
2021/12/09 06:28:23;;;;;;;7.30;4.47;;;2.40;99.90;;;;;;5034862;28;20422;-83
2021/12/09 06:30:49;;;;;;;7.00;4.90;;;2.40;99.90;;;;;;5039027;22;20494;-84
2021/12/09 06:33:14;;;;;;;9.20;5.27;;;2.40;99.90;;;;;;5017137;28;20206;-84
2021/12/09 06:35:40;;;;;;;8.27;4.90;;;2.30;99.90;;;;;;5032963;28;20186;-84
2021/12/09 06:38:12;;;;;;;8.57;5.03;;;2.30;99.90;;;;;;5035441;28;20175;-85
2021/12/09 06:40:38;;;;;;;14.53;6.87;;;2.30;99.90;;;;;;5035480;28;20467;-85
2021/12/09 06:43:04;;;;;;;10.73;5.73;;;2.30;99.90;;;;;;5035546;28;20421;-84
2021/12/09 06:45:30;;;;;;;10.13;6.07;;;2.30;99.90;;;;;;5035850;28;20902;-84
2021/12/09 06:47:55;;;;;;;9.53;5.80;;;2.20;99.90;;;;;;5034857;28;20794;-86
2021/12/09 06:50:22;;;;;;;10.63;5.43;;;2.20;99.90;;;;;;5035198;28;20453;-84
2021/12/09 06:52:48;;;;;;;15.70;8.17;;;2.20;99.90;;;;;;5038284;28;20226;-84
2021/12/09 06:55:15;;;;;;;8.97;5.83;;;2.20;99.90;;;;;;5024472;28;20432;-85
2021/12/09 06:57:43;;;;;;;8.30;6.43;;;2.20;99.90;;;;;;5017950;28;20184;-85
2021/12/09 07:00:15;;;;;;;12.90;7.27;;;2.20;99.90;;;;;;5015288;28;20814;-84
2021/12/09 07:02:40;;;;;;;11.37;6.87;;;2.20;99.90;;;;;;5015673;28;20964;-85
2021/12/09 07:05:08;;;;;;;13.20;6.80;;;2.20;99.90;;;;;;5014362;28;20423;-86
2021/12/09 07:07:34;;;;;;;11.63;6.50;;;2.20;99.90;;;;;;5014989;28;20199;-84
2021/12/09 07:10:00;;;;;;;13.10;5.50;;;2.20;99.90;;;;;;5014977;28;20450;-85
2021/12/09 07:12:26;;;;;;;7.03;4.97;;;2.20;99.90;;;;;;5015339;28;21016;-84
2021/12/09 07:14:51;;;;;;;13.97;6.63;;;2.20;99.90;;;;;;5015175;28;20427;-84
2021/12/09 07:17:17;;;;;;;10.03;5.70;;;2.20;99.90;;;;;;5015362;28;20644;-84
2021/12/09 07:19:43;;;;;;;15.77;7.03;;;2.20;99.90;;;;;;5014897;28;20292;-83
2021/12/09 07:22:09;;;;;;;10.73;5.57;;;2.20;99.90;;;;;;5015103;28;21019;-84
2021/12/09 07:24:35;;;;;;;9.90;6.23;;;2.20;99.90;;;;;;5015993;28;20270;-84
2021/12/09 07:27:01;;;;;;;9.07;6.13;;;2.10;99.90;;;;;;5014718;28;20796;-85
2021/12/09 07:29:29;;;;;;;9.90;5.63;;;2.20;99.90;;;;;;5014164;28;20459;-84
2021/12/09 07:31:55;;;;;;;10.03;5.40;;;2.20;99.90;;;;;;5014481;28;20223;-85
2021/12/09 07:34:21;;;;;;;7.13;4.73;;;2.10;99.90;;;;;;5014207;28;20795;-84
2021/12/09 07:36:47;;;;;;;11.13;5.70;;;2.10;99.90;;;;;;5015753;28;20183;-84
2021/12/09 07:39:13;;;;;;;9.63;5.57;;;2.10;99.90;;;;;;5015113;28;20462;-85
2021/12/09 07:41:39;;;;;;;7.03;4.90;;;2.00;99.90;;;;;;5014175;28;20427;-85
2021/12/09 07:44:05;;;;;;;8.40;4.57;;;2.00;99.90;;;;;;5016216;28;20430;-84
2021/12/09 07:46:32;;;;;;;8.33;4.80;;;2.00;99.90;;;;;;5015816;28;20249;-84
2021/12/09 07:48:58;;;;;;;11.60;5.30;;;2.10;99.90;;;;;;5013846;28;20786;-84
2021/12/09 07:51:24;;;;;;;9.10;5.33;;;2.10;99.90;;;;;;5013913;28;20474;-85
2021/12/09 07:53:50;;;;;;;6.90;5.63;;;2.10;99.90;;;;;;5014219;28;20419;-85
2021/12/09 07:56:15;;;;;;;8.90;5.00;;;2.20;99.90;;;;;;5015746;28;20417;-85
2021/12/09 07:58:41;;;;;;;9.07;5.00;;;2.20;99.90;;;;;;5014303;28;20555;-85
2021/12/09 08:01:06;;;;;;;8.50;4.67;;;2.30;99.90;;;;;;5014893;28;20247;-85
2021/12/09 08:03:33;;;;;;;7.30;4.50;;;2.40;99.90;;;;;;5013987;28;20203;-84
2021/12/09 08:05:59;;;;;;;7.93;4.53;;;2.40;99.90;;;;;;5013579;28;20191;-84
2021/12/09 08:08:24;;;;;;;8.47;4.33;;;2.40;99.90;;;;;;5013217;28;20946;-84
2021/12/09 08:10:50;;;;;;;6.97;4.90;;;2.50;99.90;;;;;;5012714;28;20215;-83
2021/12/09 08:13:16;;;;;;;8.20;5.50;;;2.60;99.90;;;;;;5014094;28;20214;-86
2021/12/09 08:15:48;;;;;;;8.50;4.20;;;2.70;99.90;;;;;;5015379;28;20514;-84
2021/12/09 08:20:48;;;;;;;7.30;4.87;;;2.70;99.90;;;;;;5014932;28;20517;-86
2021/12/09 08:23:14;;;;;;;9.33;4.80;;;2.70;99.90;;;;;;5015448;28;20469;-86
2021/12/09 08:25:40;;;;;;;12.00;4.40;;;2.80;99.90;;;;;;5015078;28;20415;-84
2021/12/09 08:28:06;;;;;;;8.90;4.53;;;2.80;99.90;;;;;;5013856;28;20247;-84
2021/12/09 08:30:32;;;;;;;8.00;4.90;;;2.80;99.90;;;;;;5013220;28;20474;-86
2021/12/09 08:32:58;;;;;;;7.03;4.30;;;2.90;99.90;;;;;;5013121;28;20177;-85
2021/12/09 08:35:25;;;;;;;8.20;4.03;;;2.90;99.90;;;;;;5013461;28;20412;-85
2021/12/09 08:37:51;;;;;;;5.73;4.80;;;3.00;99.90;;;;;;5013432;28;20794;-86
2021/12/09 08:40:18;;;;;;;9.20;5.27;;;3.00;99.90;;;;;;5013818;28;20432;-85
2021/12/09 08:42:44;;;;;;;9.17;4.43;;;3.00;99.90;;;;;;5012779;28;20431;-85
2021/12/09 08:45:11;;;;;;;6.00;3.90;;;3.10;99.90;;;;;;5006903;28;20428;-83
2021/12/09 08:47:38;;;;;;;8.57;4.43;;;3.20;99.90;;;;;;5013870;28;21027;-84
2021/12/09 08:50:07;;;;;;;6.20;4.07;;;3.20;99.90;;;;;;5031422;28;20439;-85
2021/12/09 08:52:32;;;;;;;7.50;4.97;;;3.20;99.90;;;;;;5031740;28;20455;-84
2021/12/09 08:54:58;;;;;;;7.37;3.90;;;3.30;99.90;;;;;;5031193;28;20426;-84
2021/12/09 08:57:23;;;;;;;6.37;4.83;;;3.30;99.90;;;;;;5031658;28;20250;-86
2021/12/09 08:59:49;;;;;;;10.80;4.93;;;3.40;99.90;;;;;;5031171;28;20290;-85
2021/12/09 09:02:16;;;;;;;6.43;4.10;;;3.40;99.90;;;;;;5031285;28;20180;-85
2021/12/09 09:04:42;;;;;;;9.60;4.77;;;3.50;99.90;;;;;;5031956;28;20559;-86
2021/12/09 09:07:09;;;;;;;7.33;4.70;;;3.60;99.90;;;;;;5031618;28;20418;-85
2021/12/09 09:09:37;;;;;;;8.10;5.50;;;3.60;99.90;;;;;;5021047;28;20866;-82
2021/12/09 09:12:06;;;;;;;8.90;5.13;;;3.70;99.90;;;;;;5025867;28;20544;-83
2021/12/09 09:14:32;;;;;;;7.80;4.60;;;3.80;99.90;;;;;;5032928;28;20415;-83
2021/12/09 09:16:58;;;;;;;8.07;4.87;;;3.90;99.90;;;;;;5031551;28;20416;-83
2021/12/09 09:19:24;;;;;;;11.93;5.50;;;4.00;99.90;;;;;;5031641;28;20442;-84
2021/12/09 09:21:50;;;;;;;6.57;4.80;;;4.00;99.90;;;;;;5031445;28;20184;-84
2021/12/09 09:24:16;;;;;;;9.47;4.80;;;4.10;99.90;;;;;;5025074;28;20445;-86
2021/12/09 09:26:42;;;;;;;9.27;4.20;;;4.20;99.90;;;;;;5013645;28;20397;-86
2021/12/09 09:29:08;;;;;;;9.03;5.43;;;4.30;99.90;;;;;;5015166;28;20251;-84
2021/12/09 09:31:35;;;;;;;8.97;4.70;;;4.40;99.90;;;;;;5015892;28;20216;-86
2021/12/09 09:34:02;;;;;;;8.97;5.20;;;4.40;99.90;;;;;;5016110;28;20426;-86
2021/12/09 09:36:30;;;;;;;9.13;5.90;;;4.50;99.90;;;;;;5015956;28;20440;-85
2021/12/09 09:39:06;;;;;;;11.80;6.00;;;4.50;99.90;;;;;;5017169;28;20424;-86
2021/12/09 09:41:33;;;;;;;9.60;5.00;;;4.50;99.90;;;;;;5015991;28;20468;-86
2021/12/09 09:44:11;;;;;;;8.57;4.70;;;4.60;99.90;;;;;;5016069;28;20958;-84
2021/12/09 09:46:37;;;;;;;8.10;4.83;;;4.70;99.90;;;;;;5015992;28;20511;-86
2021/12/09 09:49:05;;;;;;;9.30;4.60;;;4.80;99.90;;;;;;5015695;28;20486;-86
2021/12/09 09:51:31;;;;;;;10.03;4.57;;;4.80;99.90;;;;;;5015883;28;20547;-87
2021/12/09 09:53:58;;;;;;;6.97;5.00;;;4.90;99.90;;;;;;5016705;28;20420;-87
2021/12/09 09:56:24;;;;;;;11.00;5.40;;;5.00;99.90;;;;;;5014810;28;20423;-87
2021/12/09 09:58:52;;;;;;;6.87;4.17;;;5.20;99.90;;;;;;5015659;28;20426;-87
2021/12/09 10:01:18;;;;;;;7.47;4.40;;;5.30;99.90;;;;;;5015344;28;20434;-87
2021/12/09 10:03:47;;;;;;;7.57;4.40;;;5.40;99.90;;;;;;5014777;28;20419;-87
2021/12/09 10:06:16;;;;;;;10.20;5.40;;;5.60;99.90;;;;;;5014437;28;20438;-87
2021/12/09 10:08:41;;;;;;;8.80;4.23;;;5.80;99.90;;;;;;5014758;28;20447;-87
2021/12/09 10:11:08;;;;;;;8.53;4.63;;;6.20;99.90;;;;;;5014147;28;20499;-87
2021/12/09 10:13:37;;;;;;;11.03;4.57;;;6.40;99.90;;;;;;5014929;28;20419;-87
2021/12/09 10:16:15;;;;;;;5.40;4.10;;;6.50;99.90;;;;;;5015278;28;20427;-87
2021/12/09 10:18:44;;;;;;;7.10;4.30;;;6.40;99.90;;;;;;5014847;28;20412;-86
2021/12/09 10:21:18;;;;;;;7.10;4.30;;;6.30;99.90;;;;;;5014255;28;20594;-86
2021/12/09 10:23:46;;;;;;;6.63;3.83;;;6.30;99.90;;;;;;5014998;28;20409;-87
2021/12/09 10:26:27;;;;;;;10.30;4.97;;;6.60;99.90;;;;;;5014404;28;20422;-87
2021/12/09 10:29:05;;;;;;;6.30;4.00;;;6.80;99.90;;;;;;5014815;28;20420;-88
2021/12/09 10:31:38;;;;;;;10.20;4.10;;;7.00;99.90;;;;;;5013970;28;20542;-88
2021/12/09 10:34:26;;;;;;;9.33;5.60;;;7.10;99.90;;;;;;5014287;28;20495;-88
2021/12/09 10:36:56;;;;;;;10.80;4.40;;;7.10;99.90;;;;;;5014726;28;20431;-88
2021/12/09 10:39:56;;;;;;;6.30;3.47;;;7.10;99.90;;;;;;5014147;28;20950;-88
2021/12/09 10:42:25;;;;;;;7.27;5.03;;;7.00;99.90;;;;;;5011682;28;20428;-88
2021/12/09 10:45:01;;;;;;;9.27;4.43;;;7.00;99.90;;;;;;5015643;28;20491;-88
2021/12/09 10:47:56;;;;;;;6.20;4.00;;;7.10;99.90;;;;;;5014750;28;20486;-87
2021/12/09 10:50:46;;;;;;;6.93;3.70;;;7.20;99.90;;;;;;5014192;28;20440;-87
2021/12/09 10:55:50;;;;;;;9.43;5.07;;;7.20;99.90;;;;;;5016514;28;20407;-87
2021/12/09 10:58:19;;;;;;;8.90;3.53;;;7.10;99.90;;;;;;5015240;28;20459;-87
2021/12/09 11:00:52;;;;;;;11.13;3.90;;;7.20;99.90;;;;;;5018399;28;20466;-87
2021/12/09 11:03:29;;;;;;;10.90;5.23;;;7.10;99.90;;;;;;5018186;28;20893;-87
2021/12/09 11:06:01;;;;;;;5.70;3.40;;;7.00;99.90;;;;;;5017804;28;20420;-86
2021/12/09 11:08:29;;;;;;;7.97;3.13;;;6.90;99.90;;;;;;5015812;28;20410;-88
2021/12/09 11:11:08;;;;;;;10.67;3.97;;;6.90;99.90;;;;;;5013390;28;20433;-88
2021/12/09 11:13:41;;;;;;;7.57;3.13;;;6.90;99.90;;;;;;5015147;28;20829;-88
2021/12/09 11:16:08;;;;;;;9.73;3.43;;;6.90;99.90;;;;;;5015322;28;20749;-89
2021/12/09 11:18:42;;;;;;;7.33;3.10;;;6.90;99.90;;;;;;5013563;28;20527;-88
2021/12/09 11:21:30;;;;;;;7.30;3.33;;;6.80;99.90;;;;;;5013528;28;20451;-89
2021/12/09 11:24:12;;;;;;;4.90;2.60;;;6.80;99.90;;;;;;5013709;28;20428;-87
2021/12/09 11:26:50;;;;;;;7.10;3.50;;;6.60;99.90;;;;;;5014631;28;20420;-87
2021/12/09 11:29:30;;;;;;;7.37;3.50;;;6.60;99.90;;;;;;5014177;28;20470;-87
2021/12/09 11:32:11;;;;;;;7.47;3.50;;;6.60;99.90;;;;;;5014858;28;20448;-87
2021/12/09 11:34:46;;;;;;;7.23;4.03;;;6.50;99.90;;;;;;5014486;28;20903;-87
2021/12/09 11:37:57;;;;;;;8.67;3.60;;;6.50;99.90;;;;;;5016253;28;20410;-87
2021/12/09 11:40:15;;;;;;;6.30;3.00;;;6.60;99.90;;;;;;5014337;28;20442;-87
2021/12/09 11:45:11;;;;;;;7.30;2.67;;;6.60;99.90;;;;;;5016118;28;20416;-87
2021/12/09 11:47:45;;;;;;;5.80;3.33;;;6.60;99.90;;;;;;5014326;28;20420;-87
2021/12/09 11:50:14;;;;;;;5.30;2.80;;;6.60;99.90;;;;;;5013424;28;20448;-87
2021/12/09 11:52:43;;;;;;;6.97;3.20;;;6.60;99.90;;;;;;5014140;28;20464;-87
2021/12/09 11:55:12;;;;;;;5.93;3.07;;;6.60;99.90;;;;;;5014645;28;20797;-86
2021/12/09 11:58:18;;;;;;;8.23;3.00;;;6.60;99.90;;;;;;5014759;28;20949;-87
2021/12/09 12:12:25;;;;;;;6.13;3.10;;;6.70;99.90;;;;;;5015994;28;20486;-86
2021/12/09 12:14:57;;;;;;;6.00;2.70;;;6.60;99.90;;;;;;5014286;28;20416;-86
2021/12/09 12:17:33;;;;;;;8.00;2.73;;;6.50;99.90;;;;;;5014223;28;20422;-87
2021/12/09 12:20:36;;;;;;;5.83;2.40;;;6.50;99.90;;;;;;5013594;28;20447;-87
2021/12/09 12:23:15;;;;;;;5.67;2.27;;;6.60;99.90;;;;;;5015381;28;20408;-87
2021/12/09 12:28:30;;;;;;;9.10;3.10;;;6.60;99.90;;;;;;5015528;28;20412;-85
2021/12/09 12:39:58;;;;;;;7.20;3.30;;;6.60;99.90;;;;;;4992913;28;20419;-81
2021/12/09 12:50:35;;;;;;;6.20;3.47;;;6.50;99.90;;;;;;4982624;28;20478;-78
2021/12/09 12:53:36;;;;;;;5.37;2.93;;;6.60;99.90;;;;;;4995220;28;20476;-75
2021/12/09 12:56:31;;;;;;;5.10;3.20;;;6.60;99.90;;;;;;5009955;28;20427;-77
2021/12/09 12:59:17;;;;;;;6.20;2.93;;;6.60;99.90;;;;;;4988531;28;20432;-75
2021/12/09 13:02:13;;;;;;;6.57;3.13;;;6.70;99.90;;;;;;4987634;28;20467;-77
2021/12/09 13:05:09;;;;;;;4.87;2.97;;;6.70;99.90;;;;;;4990669;28;21042;-77
2021/12/09 13:16:15;;;;;;;6.20;2.57;;;6.70;99.90;;;;;;4997688;28;20405;-77
2021/12/09 13:21:53;;;;;;;5.27;2.77;;;6.70;99.90;;;;;;4996918;28;20447;-77
2021/12/09 13:24:20;;;;;;;6.20;2.60;;;6.50;99.90;;;;;;4996498;28;20567;-77
2021/12/09 13:27:12;;;;;;;6.67;3.37;;;6.60;99.90;;;;;;4995624;28;20429;-75
2021/12/09 13:29:55;;;;;;;4.30;2.33;;;6.60;99.90;;;;;;4995888;28;20806;-76
2021/12/09 13:46:57;;;;;;;5.20;2.13;;;6.70;99.90;;;;;;4998051;28;20403;-78
2021/12/09 13:55:20;;;;;;;3.77;2.23;;;6.70;99.90;;;;;;4998031;28;20438;-77
2021/12/09 13:57:49;;;;;;;4.97;3.00;;;6.70;99.90;;;;;;4997915;28;20421;-80
2021/12/09 14:00:27;;;;;;;7.93;2.63;;;6.70;99.90;;;;;;5015184;28;20217;-78
2021/12/09 14:02:56;;;;;;;5.20;2.50;;;6.70;99.90;;;;;;4998268;28;20447;-78
2021/12/09 14:05:23;;;;;;;4.03;2.30;;;6.70;99.90;;;;;;5012890;28;20515;-78
2021/12/09 14:07:58;;;;;;;7.90;3.67;;;6.70;99.90;;;;;;5013864;28;20514;-77
2021/12/09 14:10:28;;;;;;;4.80;2.60;;;6.80;99.90;;;;;;5012426;28;20420;-78
2021/12/09 14:13:01;;;;;;;4.10;2.47;;;6.80;99.90;;;;;;5012470;28;20475;-77
2021/12/09 14:15:55;;;;;;;4.33;2.60;;;6.80;99.90;;;;;;5013350;28;20492;-78
2021/12/09 14:18:23;;;;;;;4.00;2.10;;;6.70;99.90;;;;;;4999424;28;20424;-78